< < Back
Terminal Aerodrome Forecast


Current Version              Previous Versions:   1  2  3  4  5  6  7  8  9  

Terminal Aerodrome Forecast

010
FTUS44 KOHX 202300
TAFBNA
TAF
KBNA 202323Z 2100/2124 24004KT P6SM FEW100
     FM210600 32003KT P6SM SKC
      TEMPO 2109/2112 5SM BR
     FM211500 33008KT P6SM SCT040=



Latest METAR

784
SAUS70 KWBC 210500
MTRBNA
METAR KBNA 210453Z 00000KT 10SM CLR 12/09 A3001 RMK AO2 SLP158
T01170094


USA.gov is the U.S. government's official web portal to all federal, state and local government web resources and services.